createdAt,value
2023-02-09T00:01:34.573Z,53.77
2023-02-09T00:04:02.094Z,53.86
2023-02-09T00:06:29.958Z,53.86
2023-02-09T00:08:57.875Z,53.91
2023-02-09T00:11:47.654Z,53.58
2023-02-09T00:14:16.487Z,53.74
2023-02-09T00:16:45.246Z,53.68
2023-02-09T00:19:13.053Z,53.58
2023-02-09T00:21:40.129Z,53.70
2023-02-09T00:24:07.330Z,53.73
2023-02-09T00:26:34.117Z,53.42
2023-02-09T00:29:00.926Z,53.48
2023-02-09T00:31:27.836Z,53.59
2023-02-09T00:33:54.842Z,53.42
2023-02-09T00:36:21.734Z,53.53
2023-02-09T00:38:50.837Z,53.65
2023-02-09T00:41:17.815Z,53.69
2023-02-09T00:43:45.673Z,53.54
2023-02-09T00:46:14.492Z,53.50
2023-02-09T00:48:41.983Z,53.64
2023-02-09T00:51:08.780Z,53.51
2023-02-09T00:53:35.979Z,53.51
2023-02-09T00:56:02.832Z,53.63
2023-02-09T00:58:29.795Z,54.07
2023-02-09T01:00:56.802Z,54.19
2023-02-09T01:03:23.659Z,54.32
2023-02-09T01:05:50.501Z,54.66
2023-02-09T01:08:17.693Z,54.43
2023-02-09T01:10:46.810Z,54.73
2023-02-09T01:13:14.683Z,54.77
2023-02-09T01:15:42.153Z,55.18
2023-02-09T01:18:09.310Z,54.83
2023-02-09T01:20:36.530Z,55.10
2023-02-09T01:23:03.647Z,55.07
2023-02-09T01:25:30.841Z,54.81
2023-02-09T01:27:59.315Z,55.06
2023-02-09T01:30:26.671Z,55.20
2023-02-09T01:32:56.165Z,54.92
2023-02-09T01:35:23.153Z,54.90
2023-02-09T01:37:49.983Z,54.82
2023-02-09T01:40:17.152Z,55.06
2023-02-09T01:42:44.585Z,55.24
2023-02-09T01:45:24.558Z,55.05
2023-02-09T01:47:56.274Z,55.02
2023-02-09T01:50:29.430Z,55.07
2023-02-09T01:52:57.522Z,55.04
2023-02-09T01:55:26.353Z,54.90
2023-02-09T01:58:14.330Z,55.13
2023-02-09T02:00:41.237Z,55.09
2023-02-09T02:03:11.587Z,55.13
2023-02-09T02:05:40.799Z,55.08
2023-02-09T02:08:17.680Z,54.69
2023-02-09T02:10:44.775Z,54.86
2023-02-09T02:13:12.111Z,54.85
2023-02-09T02:15:57.310Z,55.03
2023-02-09T02:19:14.829Z,54.84
2023-02-09T02:21:56.497Z,54.95
2023-02-09T02:25:00.874Z,54.51
2023-02-09T02:27:36.073Z,54.64
2023-02-09T02:30:34.693Z,54.58
2023-02-09T02:33:26.192Z,54.76
2023-02-09T02:36:00.742Z,54.39
2023-02-09T02:38:38.606Z,54.47
2023-02-09T02:41:17.500Z,54.66
2023-02-09T02:43:59.551Z,54.26
2023-02-09T02:46:41.582Z,54.42
2023-02-09T02:49:15.284Z,54.42
2023-02-09T02:51:43.460Z,54.36
2023-02-09T02:54:20.513Z,54.30
2023-02-09T02:56:50.672Z,54.45
2023-02-09T02:59:20.744Z,54.49
2023-02-09T03:02:21.877Z,54.43
2023-02-09T03:04:52.289Z,54.18
2023-02-09T03:07:19.151Z,54.27
2023-02-09T03:09:53.695Z,54.30
2023-02-09T03:12:47.534Z,54.34
2023-02-09T03:15:31.625Z,54.02
2023-02-09T03:17:58.540Z,54.12
2023-02-09T03:20:42.339Z,54.01
2023-02-09T03:23:14.728Z,53.91
2023-02-09T03:25:44.288Z,54.23
2023-02-09T03:28:16.801Z,54.22
2023-02-09T03:30:44.830Z,53.97
2023-02-09T03:33:26.385Z,53.95
2023-02-09T03:35:55.194Z,54.02
2023-02-09T03:38:22.281Z,54.04
2023-02-09T03:40:49.662Z,54.29
2023-02-09T03:43:16.758Z,54.16
2023-02-09T03:45:43.804Z,54.16
2023-02-09T03:48:10.860Z,54.41
2023-02-09T03:50:38.282Z,54.47
2023-02-09T03:53:06.613Z,54.44
2023-02-09T03:55:33.634Z,54.31
2023-02-09T03:58:00.399Z,54.42
2023-02-09T04:00:27.381Z,54.24
2023-02-09T04:02:54.248Z,54.14
2023-02-09T04:05:22.443Z,54.32
2023-02-09T04:07:55.669Z,54.15
2023-02-09T04:10:22.530Z,54.14
2023-02-09T04:12:50.055Z,54.06
2023-02-09T04:15:17.958Z,54.43
2023-02-09T04:17:44.836Z,54.16
2023-02-09T04:20:11.658Z,54.17
2023-02-09T04:22:39.609Z,54.18
2023-02-09T04:25:06.723Z,54.08
2023-02-09T04:27:34.551Z,54.34
2023-02-09T04:30:01.323Z,54.06
2023-02-09T04:32:28.175Z,54.08
2023-02-09T04:34:55.007Z,54.04
2023-02-09T04:37:21.776Z,54.07
2023-02-09T04:39:48.704Z,54.15
2023-02-09T04:42:15.556Z,54.10
2023-02-09T04:44:43.164Z,54.03
2023-02-09T04:47:10.031Z,54.07
2023-02-09T04:49:37.321Z,53.98
2023-02-09T04:52:04.232Z,53.91
2023-02-09T04:54:31.154Z,53.92
2023-02-09T04:57:18.123Z,53.72
2023-02-09T04:59:45.117Z,53.78
2023-02-09T05:02:11.942Z,53.85
2023-02-09T05:04:38.699Z,53.68
2023-02-09T05:07:09.794Z,53.55
2023-02-09T05:09:37.311Z,53.41
2023-02-09T05:12:04.476Z,53.31
2023-02-09T05:14:31.805Z,53.63
2023-02-09T05:16:59.270Z,53.69
2023-02-09T05:19:26.101Z,53.91
2023-02-09T05:21:52.926Z,54.11
2023-02-09T05:24:19.727Z,54.18
2023-02-09T05:26:46.522Z,54.39
2023-02-09T05:29:13.394Z,54.38
2023-02-09T05:31:40.664Z,54.64
2023-02-09T05:34:07.601Z,54.52
2023-02-09T05:36:34.638Z,54.60
2023-02-09T05:39:01.746Z,54.79
2023-02-09T05:41:47.464Z,54.79
2023-02-09T05:44:14.310Z,54.59
2023-02-09T05:46:41.423Z,54.58
2023-02-09T05:49:09.193Z,54.85
2023-02-09T05:51:36.226Z,54.87
2023-02-09T05:54:03.253Z,54.95
2023-02-09T05:56:30.397Z,54.97
2023-02-09T05:58:57.326Z,54.92
2023-02-09T06:01:24.207Z,54.85
2023-02-09T06:03:51.172Z,54.79
2023-02-09T06:06:18.008Z,54.69
2023-02-09T06:08:45.288Z,54.54
2023-02-09T06:11:14.592Z,54.96
2023-02-09T06:13:41.604Z,55.07
2023-02-09T06:16:08.785Z,55.07
2023-02-09T06:18:35.820Z,55.31
2023-02-09T06:21:03.062Z,55.22
2023-02-09T06:23:30.368Z,55.35
2023-02-09T06:25:57.185Z,55.45
2023-02-09T06:28:24.460Z,55.46
2023-02-09T06:30:52.740Z,55.75
2023-02-09T06:33:19.797Z,55.79
2023-02-09T06:35:52.296Z,55.82
2023-02-09T06:38:19.335Z,56.18
2023-02-09T06:40:47.013Z,56.27
2023-02-09T06:43:14.234Z,56.35
2023-02-09T06:45:41.289Z,56.46
2023-02-09T06:48:08.256Z,56.62
2023-02-09T06:50:35.897Z,56.63
2023-02-09T06:53:02.910Z,56.57
2023-02-09T06:55:29.919Z,56.57
2023-02-09T06:57:56.825Z,56.45
2023-02-09T07:00:23.602Z,56.20
2023-02-09T07:02:52.626Z,56.04
2023-02-09T07:05:20.601Z,55.99
2023-02-09T07:07:47.444Z,55.86
2023-02-09T07:10:15.848Z,55.83
2023-02-09T07:12:43.306Z,55.59
2023-02-09T07:15:10.957Z,55.36
2023-02-09T07:17:39.267Z,55.32
2023-02-09T07:20:08.514Z,55.12
2023-02-09T07:22:35.430Z,54.86
2023-02-09T07:25:02.277Z,54.66
2023-02-09T07:27:29.374Z,54.44
2023-02-09T07:29:56.483Z,54.42
2023-02-09T07:32:23.987Z,54.30
2023-02-09T07:34:50.808Z,54.37
2023-02-09T07:37:17.910Z,54.21
2023-02-09T07:39:44.789Z,53.95
2023-02-09T07:42:11.903Z,54.03
2023-02-09T07:44:48.864Z,53.54
2023-02-09T07:47:15.646Z,53.30
2023-02-09T07:49:42.611Z,53.21
2023-02-09T07:52:09.499Z,53.11
2023-02-09T07:54:37.022Z,53.10
2023-02-09T07:57:03.811Z,53.41
2023-02-09T07:59:30.822Z,53.29
2023-02-09T08:01:57.784Z,52.78
2023-02-09T08:04:24.578Z,52.62
2023-02-09T08:06:52.728Z,52.66
2023-02-09T08:09:19.574Z,52.85
2023-02-09T08:12:02.127Z,52.58
2023-02-09T08:14:36.079Z,52.00
2023-02-09T08:17:20.886Z,52.07
2023-02-09T08:20:15.304Z,51.90
2023-02-09T08:22:46.098Z,51.74
2023-02-09T08:25:19.092Z,51.77
2023-02-09T08:27:46.118Z,51.57
2023-02-09T08:30:14.153Z,51.46
2023-02-09T08:32:41.572Z,51.10
2023-02-09T08:35:08.462Z,50.87
2023-02-09T08:37:36.428Z,50.53
2023-02-09T08:40:03.457Z,50.11
2023-02-09T08:42:30.891Z,49.80
2023-02-09T08:44:58.711Z,49.77
2023-02-09T08:47:25.532Z,49.46
2023-02-09T08:49:52.326Z,48.84
2023-02-09T08:52:19.504Z,48.33
2023-02-09T08:54:46.519Z,48.19
2023-02-09T08:57:13.449Z,47.90
2023-02-09T08:59:40.253Z,47.68
2023-02-09T09:02:07.126Z,47.78
2023-02-09T09:04:33.995Z,47.72
2023-02-09T09:07:00.812Z,47.70
2023-02-09T09:09:27.598Z,47.38
2023-02-09T09:11:54.393Z,47.24
2023-02-09T09:14:21.750Z,46.99
2023-02-09T09:16:49.248Z,47.17
2023-02-09T09:19:16.044Z,47.21
2023-02-09T09:21:45.783Z,46.83
2023-02-09T09:24:13.441Z,46.76
2023-02-09T09:26:40.306Z,46.95
2023-02-09T09:29:07.177Z,47.17
2023-02-09T09:31:34.378Z,47.15
2023-02-09T09:34:03.381Z,47.02
2023-02-09T09:36:30.301Z,47.04
2023-02-09T09:38:57.784Z,47.11
2023-02-09T09:41:34.019Z,47.06
2023-02-09T09:44:00.922Z,46.63
2023-02-09T09:46:48.204Z,46.77
2023-02-09T09:49:23.820Z,46.91
2023-02-09T09:52:12.471Z,46.74
2023-02-09T09:54:40.211Z,46.95
2023-02-09T09:57:19.474Z,46.16
2023-02-09T09:59:46.346Z,46.22
2023-02-09T10:02:32.511Z,46.10
2023-02-09T10:05:20.799Z,46.01
2023-02-09T10:08:31.338Z,45.92
2023-02-09T10:11:35.760Z,45.91
2023-02-09T10:14:03.168Z,45.92
2023-02-09T10:16:33.916Z,45.85
2023-02-09T10:19:02.482Z,45.66
2023-02-09T10:21:32.490Z,45.31
2023-02-09T10:23:59.518Z,44.73
2023-02-09T10:26:31.704Z,44.57
2023-02-09T10:29:21.060Z,44.45
2023-02-09T10:31:54.212Z,44.51
2023-02-09T10:34:33.882Z,43.97
2023-02-09T10:37:29.080Z,43.49
2023-02-09T10:40:23.369Z,43.52
2023-02-09T10:42:55.713Z,43.26
2023-02-09T10:45:43.860Z,43.25
2023-02-09T10:48:10.864Z,43.08
2023-02-09T10:50:59.753Z,42.59
2023-02-09T10:53:33.206Z,42.83
2023-02-09T10:56:04.580Z,42.29
2023-02-09T10:58:33.584Z,41.99
2023-02-09T11:01:16.782Z,42.24
2023-02-09T11:04:19.961Z,42.20
2023-02-09T11:07:15.393Z,41.84
2023-02-09T11:09:48.354Z,41.46
2023-02-09T11:12:15.190Z,41.24
2023-02-09T11:14:46.194Z,41.21
2023-02-09T11:17:17.010Z,41.16
2023-02-09T11:19:53.317Z,40.81
2023-02-09T11:22:39.044Z,41.07
2023-02-09T11:25:24.853Z,40.75
2023-02-09T11:28:18.284Z,40.75
2023-02-09T11:31:29.983Z,40.92
2023-02-09T11:34:19.306Z,40.79
2023-02-09T11:37:16.927Z,40.73
2023-02-09T11:39:49.414Z,40.56
2023-02-09T11:42:38.679Z,40.48
2023-02-09T11:45:10.595Z,40.63
2023-02-09T11:47:46.931Z,40.87
2023-02-09T11:50:40.158Z,40.86
2023-02-09T11:53:38.169Z,40.75
2023-02-09T11:56:07.937Z,40.43
2023-02-09T11:58:53.183Z,40.61
2023-02-09T12:01:35.551Z,40.62
2023-02-09T12:04:17.753Z,40.44
2023-02-09T12:06:49.445Z,40.07
2023-02-09T12:09:25.431Z,40.27
2023-02-09T12:12:14.052Z,40.64
2023-02-09T12:14:41.218Z,40.90
2023-02-09T12:17:33.250Z,40.56
2023-02-09T12:20:00.612Z,40.34
2023-02-09T12:22:43.119Z,40.24
2023-02-09T12:25:25.021Z,40.30
2023-02-09T12:28:35.408Z,40.22
2023-02-09T12:31:08.056Z,40.62
2023-02-09T12:33:36.963Z,40.78
2023-02-09T12:36:09.988Z,40.77
2023-02-09T12:38:50.483Z,40.84
2023-02-09T12:41:21.692Z,41.10
2023-02-09T12:43:48.923Z,40.87
2023-02-09T12:46:31.277Z,40.86
2023-02-09T12:49:15.185Z,40.70
2023-02-09T12:51:54.529Z,40.88
2023-02-09T12:54:43.393Z,41.05
2023-02-09T12:57:19.496Z,40.94
2023-02-09T12:59:57.670Z,40.88
2023-02-09T13:02:49.922Z,40.99
2023-02-09T13:05:17.573Z,41.09
2023-02-09T13:08:06.206Z,41.00
2023-02-09T13:10:35.832Z,40.85
2023-02-09T13:13:03.632Z,41.03
2023-02-09T13:15:43.551Z,41.06
2023-02-09T13:18:36.781Z,41.21
2023-02-09T13:21:27.322Z,41.43
2023-02-09T13:24:14.368Z,41.71
2023-02-09T13:26:57.697Z,41.71
2023-02-09T13:29:29.371Z,41.83
2023-02-09T13:32:22.857Z,41.90
2023-02-09T13:35:27.318Z,42.06
2023-02-09T13:38:02.790Z,42.33
2023-02-09T13:40:31.354Z,42.49
2023-02-09T13:43:24.246Z,42.49
2023-02-09T13:45:52.909Z,42.75
2023-02-09T13:48:23.828Z,42.71
2023-02-09T13:50:51.684Z,42.79
2023-02-09T13:53:19.496Z,42.79
2023-02-09T13:55:47.793Z,42.84
2023-02-09T13:58:21.997Z,43.09
2023-02-09T14:00:52.184Z,43.00
2023-02-09T14:03:19.013Z,42.82
2023-02-09T14:06:00.506Z,43.09
2023-02-09T14:08:28.581Z,43.10
2023-02-09T14:11:01.995Z,43.13
2023-02-09T14:13:34.874Z,43.24
2023-02-09T14:16:08.272Z,43.07
2023-02-09T14:18:47.802Z,43.27
2023-02-09T14:21:22.659Z,43.23
2023-02-09T14:24:03.970Z,43.16
2023-02-09T14:26:48.318Z,43.25
2023-02-09T14:29:24.865Z,43.06
2023-02-09T14:32:00.159Z,43.07
2023-02-09T14:34:37.525Z,42.99
2023-02-09T14:37:11.113Z,42.98
2023-02-09T14:40:00.655Z,43.49
2023-02-09T14:42:28.608Z,43.36
2023-02-09T14:44:58.672Z,43.62
2023-02-09T14:47:34.869Z,43.59
2023-02-09T14:50:02.155Z,43.78
2023-02-09T14:52:32.145Z,44.13
2023-02-09T15:07:19.276Z,44.86
2023-02-09T15:09:48.477Z,44.47
2023-02-09T15:12:27.918Z,44.63
2023-02-09T15:14:58.860Z,44.78
2023-02-09T15:17:29.320Z,44.94
2023-02-09T15:19:58.136Z,45.14
2023-02-09T15:22:26.978Z,45.24
2023-02-09T15:24:57.836Z,45.53
2023-02-09T15:27:40.308Z,45.66
2023-02-09T15:30:17.329Z,45.81
2023-02-09T15:32:45.679Z,46.09
2023-02-09T15:35:18.297Z,45.96
2023-02-09T15:37:48.205Z,46.10
2023-02-09T15:40:43.961Z,46.27
2023-02-09T15:43:36.589Z,46.33
2023-02-09T15:46:23.938Z,46.48
2023-02-09T15:48:52.446Z,46.29
2023-02-09T15:51:21.380Z,46.16
2023-02-09T15:53:49.564Z,46.13
2023-02-09T15:56:19.067Z,46.29
2023-02-09T15:58:57.431Z,46.35
2023-02-09T16:01:26.665Z,46.52
2023-02-09T16:04:02.675Z,46.63
2023-02-09T16:06:38.680Z,46.82
2023-02-09T16:09:16.049Z,46.69
2023-02-09T16:11:45.014Z,46.70
2023-02-09T16:14:20.734Z,46.88
2023-02-09T16:16:49.639Z,46.87
2023-02-09T16:19:19.005Z,46.93
2023-02-09T16:21:50.142Z,46.98
2023-02-09T16:24:31.502Z,47.09
2023-02-09T16:27:04.979Z,47.09
2023-02-09T16:29:33.434Z,47.28
2023-02-09T16:32:01.721Z,47.28
2023-02-09T16:34:30.260Z,47.34
2023-02-09T16:36:58.865Z,47.37
2023-02-09T16:39:27.131Z,47.46
2023-02-09T16:41:57.135Z,47.50
2023-02-09T16:44:29.434Z,47.53
2023-02-09T16:46:57.989Z,47.58
2023-02-09T16:49:34.309Z,47.52
2023-02-09T16:52:05.740Z,47.51
2023-02-09T16:54:40.385Z,47.43
2023-02-09T16:57:13.600Z,47.66
2023-02-09T16:59:41.924Z,47.73
2023-02-09T17:02:26.094Z,47.70
2023-02-09T17:04:57.096Z,47.83
2023-02-09T17:07:33.002Z,47.94
2023-02-09T17:10:14.325Z,48.01
2023-02-09T17:12:42.522Z,47.99
2023-02-09T17:15:28.965Z,48.16
2023-02-09T17:18:02.253Z,48.27
2023-02-09T17:20:36.345Z,48.35
2023-02-09T17:23:05.183Z,48.18
2023-02-09T17:25:34.630Z,48.35
2023-02-09T17:28:03.046Z,48.29
2023-02-09T17:30:32.394Z,48.37
2023-02-09T17:33:03.219Z,48.35
2023-02-09T17:36:17.720Z,48.49
2023-02-09T17:38:28.061Z,48.50
2023-02-09T17:40:56.896Z,48.58
2023-02-09T17:43:25.464Z,48.61
2023-02-09T17:45:54.453Z,48.70
2023-02-09T17:48:23.273Z,48.69
2023-02-09T17:50:57.888Z,48.86
2023-02-09T17:53:28.527Z,48.98
2023-02-09T17:55:56.918Z,48.95
2023-02-09T17:58:25.235Z,49.07
2023-02-09T18:00:56.764Z,49.17
2023-02-09T18:03:26.148Z,49.30
2023-02-09T18:05:58.736Z,49.23
2023-02-09T18:08:27.601Z,49.35
2023-02-09T18:10:58.878Z,49.41
2023-02-09T18:13:27.437Z,49.37
2023-02-09T18:15:56.630Z,49.61
2023-02-09T18:18:24.953Z,49.48
2023-02-09T18:20:53.269Z,49.58
2023-02-09T18:23:23.214Z,49.65
2023-02-09T18:25:51.608Z,49.72
2023-02-09T18:28:20.745Z,49.84
2023-02-09T18:30:49.335Z,49.74
2023-02-09T18:33:18.416Z,49.93
2023-02-09T18:35:46.866Z,49.78
2023-02-09T18:38:16.087Z,49.85
2023-02-09T18:40:44.342Z,49.85
2023-02-09T18:43:14.946Z,49.85
2023-02-09T18:45:43.413Z,49.81
2023-02-09T18:48:12.127Z,49.86
2023-02-09T18:50:40.729Z,49.81
2023-02-09T18:53:11.014Z,49.84
2023-02-09T18:55:39.565Z,49.91
2023-02-09T18:58:11.683Z,50.00
2023-02-09T19:00:40.044Z,50.15
2023-02-09T19:03:08.579Z,50.26
2023-02-09T19:05:36.970Z,50.22
2023-02-09T19:08:07.558Z,50.41
2023-02-09T19:10:36.443Z,50.70
2023-02-09T19:13:04.820Z,50.70
2023-02-09T19:15:34.535Z,50.91
2023-02-09T19:18:04.431Z,51.14
2023-02-09T19:20:34.377Z,51.18
2023-02-09T19:23:03.995Z,51.22
2023-02-09T19:25:33.475Z,51.33
2023-02-09T19:28:01.988Z,51.18
2023-02-09T19:30:30.695Z,51.39
2023-02-09T19:33:00.287Z,51.43
2023-02-09T19:35:29.560Z,51.42
2023-02-09T19:37:58.576Z,51.49
2023-02-09T19:40:36.967Z,51.53
2023-02-09T19:43:06.351Z,51.63
2023-02-09T19:45:37.956Z,51.61
2023-02-09T19:48:06.855Z,51.70
2023-02-09T19:50:37.081Z,51.71
2023-02-09T19:53:06.350Z,51.66
2023-02-09T19:55:36.549Z,51.67
2023-02-09T19:58:04.920Z,51.68
2023-02-09T20:00:34.612Z,51.81
2023-02-09T20:03:02.957Z,51.81
2023-02-09T20:05:31.986Z,51.70
2023-02-09T20:08:00.260Z,51.83
2023-02-09T20:10:28.663Z,51.83
2023-02-09T20:12:56.997Z,51.73
2023-02-09T20:15:26.786Z,52.08
2023-02-09T20:17:55.255Z,52.50
2023-02-09T20:20:24.059Z,52.47
2023-02-09T20:22:52.495Z,52.54
2023-02-09T20:25:20.961Z,52.52
2023-02-09T20:27:50.458Z,52.81
2023-02-09T20:30:19.031Z,52.85
2023-02-09T20:32:50.715Z,52.94
2023-02-09T20:35:20.106Z,52.90
2023-02-09T20:37:48.385Z,52.96
2023-02-09T20:40:17.176Z,52.90
2023-02-09T20:43:05.045Z,52.81
2023-02-09T20:45:52.386Z,53.00
2023-02-09T20:48:20.688Z,52.89
2023-02-09T20:50:49.654Z,52.89
2023-02-09T20:53:19.241Z,52.90
2023-02-09T20:55:50.641Z,52.72
2023-02-09T20:58:19.502Z,52.81
2023-02-09T21:00:48.135Z,52.55
2023-02-09T21:03:17.128Z,52.54
2023-02-09T21:08:37.722Z,52.31
2023-02-09T21:11:09.287Z,52.31
2023-02-09T21:13:41.231Z,52.15
2023-02-09T21:16:09.827Z,52.16
2023-02-09T21:18:38.902Z,52.28
2023-02-09T21:21:07.991Z,52.13
2023-02-09T21:23:36.672Z,52.10
2023-02-09T21:26:06.776Z,52.19
2023-02-09T21:28:36.403Z,52.23
2023-02-09T21:31:17.090Z,52.15
2023-02-09T21:33:45.394Z,52.13
2023-02-09T21:36:13.736Z,52.22
2023-02-09T21:38:42.268Z,52.13
2023-02-09T21:41:31.664Z,52.25
2023-02-09T21:43:59.964Z,52.26
2023-02-09T21:46:28.582Z,52.45
2023-02-09T21:48:59.828Z,52.50
2023-02-09T21:51:28.358Z,52.51
2023-02-09T21:53:56.672Z,52.60
2023-02-09T21:56:25.033Z,52.72
2023-02-09T21:58:54.410Z,52.76
2023-02-09T22:01:22.651Z,52.76
2023-02-09T22:03:57.473Z,52.82
2023-02-09T22:06:26.366Z,52.75
2023-02-09T22:08:54.580Z,52.69
2023-02-09T22:11:23.239Z,52.87
2023-02-09T22:13:51.526Z,52.97
2023-02-09T22:16:21.073Z,53.13
2023-02-09T22:18:50.056Z,53.24
2023-02-09T22:21:20.636Z,53.31
2023-02-09T22:23:49.769Z,53.43
2023-02-09T22:26:18.830Z,53.60
2023-02-09T22:28:47.376Z,53.30
2023-02-09T22:31:17.576Z,53.37
2023-02-09T22:33:45.932Z,53.31
2023-02-09T22:36:18.192Z,53.41
2023-02-09T22:38:46.588Z,53.42
2023-02-09T22:41:22.881Z,53.48
2023-02-09T22:43:52.961Z,53.40
2023-02-09T22:46:22.394Z,53.46
2023-02-09T22:48:54.912Z,53.40
2023-02-09T22:51:24.239Z,53.32
2023-02-09T22:53:52.990Z,53.21
2023-02-09T22:56:21.239Z,53.32
2023-02-09T22:58:49.806Z,53.25
2023-02-09T23:01:18.133Z,53.35
2023-02-09T23:03:46.471Z,53.22
2023-02-09T23:06:17.789Z,53.29
2023-02-09T23:08:46.599Z,53.32
2023-02-09T23:11:17.138Z,53.23
2023-02-09T23:13:45.475Z,53.19
2023-02-09T23:16:24.259Z,53.23
2023-02-09T23:18:59.938Z,53.17
2023-02-09T23:21:36.576Z,53.13
2023-02-09T23:24:06.782Z,53.28
2023-02-09T23:26:35.728Z,53.20
2023-02-09T23:29:05.842Z,53.36
2023-02-09T23:31:34.644Z,53.29
2023-02-09T23:34:02.939Z,53.39
2023-02-09T23:36:33.097Z,53.36
2023-02-09T23:39:03.229Z,53.44
2023-02-09T23:41:34.794Z,53.49
2023-02-09T23:44:04.800Z,53.48
2023-02-09T23:46:33.207Z,53.59
2023-02-09T23:49:01.740Z,53.49
2023-02-09T23:51:34.743Z,53.48
2023-02-09T23:54:04.670Z,53.46
2023-02-09T23:56:37.395Z,53.42
2023-02-09T23:59:07.768Z,53.42
